Milwaukee, WI (53219)

4:55 AM CST on December 20, 2014 (GMT -0600)
Root Creek | Change Station
CLOSE
Current Station
Personal Weather Station
Location: Milwaukee, WI
Elevation: 781 ft
Nearby Weather Stations

Elev 781 ft 42.97 °N, 88.00 °W | Updated 11 seconds ago

Overcast
Overcast
26.0 °F
Feels Like 26 °F
N
0.0
Wind Variable Wind from West
Gusts 0.0 mph

Today
High -- | Low -- °F
--% Chance of Precip.
Yesterday
High -- | Low -- °F
Precip. -- in
7:19 AM 4:19 PM
Waning Crescent, 3% visible
Pressure 30.31 in
Visibility 10.0 miles
Clouds Few 1800 ft
Overcast 2500 ft
Windchill 26 °F
Dew Point 21 °F
Humidity 82%
Rainfall 0.00 in
Snow Depth Not available.
UV 0 out of 12
Pollen .10 out of 12
Air Quality Not available.
Flu Activity Not available.
METAR KMKE 200952Z 24005KT 10SM FEW018 OVC025 M03/M07 A3027 RMK AO2 SLP262 T10281072

More Conditions Fewer Conditions

Pressure 30.31 in
Visibility 10.0 miles
Clouds Few 1800 ft
Overcast 2500 ft
Windchill 26 °F
Dew Point 21 °F
Humidity 82%
Rainfall 0.00 in
Snow Depth Not available.
UV 0 out of 12
Pollen .10 out of 12
Air Quality Not available.
Flu Activity Not available.
METAR KMKE 200952Z 24005KT 10SM FEW018 OVC025 M03/M07 A3027 RMK AO2 SLP262 T10281072

More Conditions Fewer Conditions

10-Day Weather Forecast

Almanac

Astronomy

Dec. 20, 2014 Rise Set
Actual Time
Civil Twilight
Nautical Twilight
Astronomical Twilight
Moon
Length of Visible Light
Length of Day
Tomorrow will be .
, % of the Moon is Illuminated

Today's Extremes

State Highs State Lows

Community

WunderPhotos

Upload Photos

1,779,151 photos uploaded!

WunderBlogs® & News

Nearby

Air Quality

  Air Quality AQ Index Pollutant
Not available.

Snow Depth

Station Depth Elevation

Earthquake Activity

City Distance Mag. Time & Date
Minimum magnitude displayed is 2.5.

Coastal Water Temperatures

Place Temperature

Nearby Weather Stations